sensor_id;sensor_type;location;lat;lon;timestamp;P1;durP1;ratioP1;P2;durP2;ratioP2
15159;SDS011;7680;48.800;9.680;2023-07-13T00:02:02;2.42;;;2.22;;
15159;SDS011;7680;48.800;9.680;2023-07-13T00:07:06;2.20;;;2.00;;
15159;SDS011;7680;48.800;9.680;2023-07-13T00:12:22;2.30;;;2.20;;
15159;SDS011;7680;48.800;9.680;2023-07-13T00:17:29;2.88;;;2.58;;
15159;SDS011;7680;48.800;9.680;2023-07-13T00:22:33;4.28;;;2.28;;
15159;SDS011;7680;48.800;9.680;2023-07-13T00:27:36;2.50;;;2.10;;
15159;SDS011;7680;48.800;9.680;2023-07-13T00:32:40;3.42;;;2.40;;
15159;SDS011;7680;48.800;9.680;2023-07-13T00:37:44;3.72;;;2.38;;
15159;SDS011;7680;48.800;9.680;2023-07-13T00:42:47;3.05;;;2.75;;
15159;SDS011;7680;48.800;9.680;2023-07-13T00:47:52;3.78;;;2.70;;
15159;SDS011;7680;48.800;9.680;2023-07-13T00:52:56;3.45;;;2.50;;
15159;SDS011;7680;48.800;9.680;2023-07-13T00:57:59;3.63;;;2.50;;
15159;SDS011;7680;48.800;9.680;2023-07-13T01:03:07;3.97;;;2.75;;
15159;SDS011;7680;48.800;9.680;2023-07-13T01:08:11;2.70;;;2.42;;
15159;SDS011;7680;48.800;9.680;2023-07-13T01:13:14;3.33;;;2.55;;
15159;SDS011;7680;48.800;9.680;2023-07-13T01:18:19;2.88;;;2.20;;
15159;SDS011;7680;48.800;9.680;2023-07-13T01:23:27;2.60;;;2.40;;
15159;SDS011;7680;48.800;9.680;2023-07-13T01:28:31;2.35;;;2.17;;
15159;SDS011;7680;48.800;9.680;2023-07-13T01:33:39;2.47;;;2.20;;
15159;SDS011;7680;48.800;9.680;2023-07-13T01:38:44;3.28;;;2.20;;
15159;SDS011;7680;48.800;9.680;2023-07-13T01:43:47;3.10;;;2.30;;
15159;SDS011;7680;48.800;9.680;2023-07-13T01:48:51;2.78;;;2.58;;
15159;SDS011;7680;48.800;9.680;2023-07-13T01:53:55;2.08;;;1.90;;
15159;SDS011;7680;48.800;9.680;2023-07-13T01:58:58;3.53;;;2.80;;
15159;SDS011;7680;48.800;9.680;2023-07-13T02:04:02;3.35;;;2.47;;
15159;SDS011;7680;48.800;9.680;2023-07-13T02:09:06;2.90;;;2.33;;
15159;SDS011;7680;48.800;9.680;2023-07-13T02:14:09;2.63;;;2.30;;
15159;SDS011;7680;48.800;9.680;2023-07-13T02:19:12;3.05;;;2.30;;
15159;SDS011;7680;48.800;9.680;2023-07-13T02:24:17;5.07;;;2.67;;
15159;SDS011;7680;48.800;9.680;2023-07-13T02:29:22;3.17;;;2.10;;
15159;SDS011;7680;48.800;9.680;2023-07-13T02:34:25;3.25;;;2.38;;
15159;SDS011;7680;48.800;9.680;2023-07-13T02:39:30;2.90;;;2.60;;
15159;SDS011;7680;48.800;9.680;2023-07-13T02:44:34;3.10;;;1.98;;
15159;SDS011;7680;48.800;9.680;2023-07-13T02:49:38;2.47;;;2.10;;
15159;SDS011;7680;48.800;9.680;2023-07-13T02:54:43;3.00;;;2.33;;
15159;SDS011;7680;48.800;9.680;2023-07-13T02:59:46;2.50;;;2.30;;
15159;SDS011;7680;48.800;9.680;2023-07-13T03:04:49;2.42;;;2.22;;
15159;SDS011;7680;48.800;9.680;2023-07-13T03:09:54;3.90;;;3.15;;
15159;SDS011;7680;48.800;9.680;2023-07-13T03:14:58;3.55;;;2.80;;
15159;SDS011;7680;48.800;9.680;2023-07-13T03:20:01;5.07;;;2.88;;
15159;SDS011;7680;48.800;9.680;2023-07-13T03:25:07;4.45;;;2.92;;
15159;SDS011;7680;48.800;9.680;2023-07-13T03:30:11;3.28;;;2.80;;
15159;SDS011;7680;48.800;9.680;2023-07-13T03:35:15;2.83;;;2.60;;
15159;SDS011;7680;48.800;9.680;2023-07-13T03:40:20;3.35;;;2.80;;
15159;SDS011;7680;48.800;9.680;2023-07-13T03:45:23;3.20;;;2.83;;
15159;SDS011;7680;48.800;9.680;2023-07-13T03:50:26;3.38;;;2.40;;
15159;SDS011;7680;48.800;9.680;2023-07-13T03:55:31;3.05;;;2.47;;
15159;SDS011;7680;48.800;9.680;2023-07-13T04:00:34;2.88;;;2.40;;
15159;SDS011;7680;48.800;9.680;2023-07-13T04:05:37;2.80;;;2.33;;
15159;SDS011;7680;48.800;9.680;2023-07-13T04:10:43;3.33;;;3.13;;
15159;SDS011;7680;48.800;9.680;2023-07-13T04:15:46;3.90;;;3.33;;
15159;SDS011;7680;48.800;9.680;2023-07-13T04:20:50;3.60;;;2.75;;
15159;SDS011;7680;48.800;9.680;2023-07-13T04:25:54;2.78;;;2.47;;
15159;SDS011;7680;48.800;9.680;2023-07-13T04:30:58;2.80;;;2.47;;
15159;SDS011;7680;48.800;9.680;2023-07-13T04:36:01;3.38;;;2.70;;
15159;SDS011;7680;48.800;9.680;2023-07-13T04:41:07;3.67;;;2.38;;
15159;SDS011;7680;48.800;9.680;2023-07-13T04:46:13;4.80;;;2.80;;
15159;SDS011;7680;48.800;9.680;2023-07-13T04:51:19;3.17;;;2.95;;
15159;SDS011;7680;48.800;9.680;2023-07-13T04:56:24;4.07;;;2.40;;
15159;SDS011;7680;48.800;9.680;2023-07-13T05:01:27;3.10;;;2.80;;
15159;SDS011;7680;48.800;9.680;2023-07-13T05:06:30;3.58;;;2.88;;
15159;SDS011;7680;48.800;9.680;2023-07-13T05:11:35;3.47;;;2.80;;
15159;SDS011;7680;48.800;9.680;2023-07-13T05:16:38;3.33;;;2.88;;
15159;SDS011;7680;48.800;9.680;2023-07-13T05:21:41;3.15;;;2.85;;
15159;SDS011;7680;48.800;9.680;2023-07-13T05:26:46;4.05;;;2.53;;
15159;SDS011;7680;48.800;9.680;2023-07-13T05:31:49;3.47;;;2.63;;
15159;SDS011;7680;48.800;9.680;2023-07-13T05:36:52;4.18;;;2.90;;
15159;SDS011;7680;48.800;9.680;2023-07-13T05:41:57;3.20;;;2.90;;
15159;SDS011;7680;48.800;9.680;2023-07-13T05:47:00;3.15;;;2.85;;
15159;SDS011;7680;48.800;9.680;2023-07-13T05:52:05;4.20;;;2.50;;
15159;SDS011;7680;48.800;9.680;2023-07-13T05:57:10;4.22;;;2.60;;
15159;SDS011;7680;48.800;9.680;2023-07-13T06:02:13;2.80;;;2.50;;
15159;SDS011;7680;48.800;9.680;2023-07-13T06:07:16;3.70;;;2.33;;
15159;SDS011;7680;48.800;9.680;2023-07-13T06:12:21;3.15;;;2.80;;
15159;SDS011;7680;48.800;9.680;2023-07-13T06:17:25;4.32;;;2.85;;
15159;SDS011;7680;48.800;9.680;2023-07-13T06:22:28;3.28;;;2.80;;
15159;SDS011;7680;48.800;9.680;2023-07-13T06:27:33;3.75;;;2.90;;
15159;SDS011;7680;48.800;9.680;2023-07-13T06:32:36;4.20;;;3.10;;
15159;SDS011;7680;48.800;9.680;2023-07-13T06:37:42;4.85;;;2.88;;
15159;SDS011;7680;48.800;9.680;2023-07-13T06:42:46;4.50;;;2.40;;
15159;SDS011;7680;48.800;9.680;2023-07-13T06:47:49;3.58;;;2.45;;
15159;SDS011;7680;48.800;9.680;2023-07-13T06:52:53;3.63;;;2.30;;
15159;SDS011;7680;48.800;9.680;2023-07-13T06:57:57;3.28;;;2.10;;
15159;SDS011;7680;48.800;9.680;2023-07-13T07:03:00;4.60;;;2.53;;
15159;SDS011;7680;48.800;9.680;2023-07-13T07:08:04;3.03;;;2.00;;
15159;SDS011;7680;48.800;9.680;2023-07-13T07:13:08;4.72;;;2.25;;
15159;SDS011;7680;48.800;9.680;2023-07-13T07:18:11;4.07;;;2.40;;
15159;SDS011;7680;48.800;9.680;2023-07-13T07:23:14;2.88;;;2.00;;
15159;SDS011;7680;48.800;9.680;2023-07-13T07:28:20;3.17;;;1.92;;
15159;SDS011;7680;48.800;9.680;2023-07-13T07:33:26;4.18;;;1.90;;
15159;SDS011;7680;48.800;9.680;2023-07-13T07:38:29;2.15;;;1.50;;
15159;SDS011;7680;48.800;9.680;2023-07-13T07:43:34;3.38;;;1.58;;
15159;SDS011;7680;48.800;9.680;2023-07-13T07:48:37;2.72;;;1.67;;
15159;SDS011;7680;48.800;9.680;2023-07-13T07:53:40;2.05;;;1.42;;
15159;SDS011;7680;48.800;9.680;2023-07-13T07:58:45;2.13;;;1.63;;
15159;SDS011;7680;48.800;9.680;2023-07-13T08:03:51;1.83;;;1.45;;
15159;SDS011;7680;48.800;9.680;2023-07-13T08:08:57;2.88;;;1.50;;
15159;SDS011;7680;48.800;9.680;2023-07-13T08:14:01;1.45;;;1.30;;
15159;SDS011;7680;48.800;9.680;2023-07-13T08:19:05;2.42;;;1.63;;
15159;SDS011;7680;48.800;9.680;2023-07-13T08:24:08;2.05;;;1.33;;
15159;SDS011;7680;48.800;9.680;2023-07-13T08:29:13;2.20;;;1.40;;
15159;SDS011;7680;48.800;9.680;2023-07-13T08:34:16;2.05;;;1.52;;
15159;SDS011;7680;48.800;9.680;2023-07-13T08:39:19;2.63;;;1.50;;
15159;SDS011;7680;48.800;9.680;2023-07-13T08:44:24;2.92;;;1.52;;
15159;SDS011;7680;48.800;9.680;2023-07-13T08:49:47;2.97;;;1.67;;
15159;SDS011;7680;48.800;9.680;2023-07-13T08:54:51;1.67;;;1.20;;
15159;SDS011;7680;48.800;9.680;2023-07-13T08:59:58;1.52;;;1.20;;
15159;SDS011;7680;48.800;9.680;2023-07-13T09:05:03;2.30;;;1.40;;
15159;SDS011;7680;48.800;9.680;2023-07-13T09:10:15;3.00;;;1.25;;
15159;SDS011;7680;48.800;9.680;2023-07-13T09:15:26;2.42;;;1.60;;
15159;SDS011;7680;48.800;9.680;2023-07-13T09:20:34;2.97;;;1.50;;
15159;SDS011;7680;48.800;9.680;2023-07-13T09:25:41;3.03;;;1.50;;
15159;SDS011;7680;48.800;9.680;2023-07-13T09:30:52;6.82;;;2.08;;
15159;SDS011;7680;48.800;9.680;2023-07-13T09:36:01;2.25;;;1.52;;
15159;SDS011;7680;48.800;9.680;2023-07-13T09:41:21;3.97;;;1.73;;
15159;SDS011;7680;48.800;9.680;2023-07-13T09:46:35;3.60;;;1.30;;
15159;SDS011;7680;48.800;9.680;2023-07-13T09:51:40;2.20;;;1.30;;
15159;SDS011;7680;48.800;9.680;2023-07-13T09:56:44;1.65;;;1.23;;
15159;SDS011;7680;48.800;9.680;2023-07-13T10:01:49;2.13;;;1.75;;
15159;SDS011;7680;48.800;9.680;2023-07-13T10:07:34;2.97;;;1.60;;
15159;SDS011;7680;48.800;9.680;2023-07-13T10:12:40;3.20;;;1.55;;
15159;SDS011;7680;48.800;9.680;2023-07-13T10:17:44;2.15;;;1.55;;
15159;SDS011;7680;48.800;9.680;2023-07-13T10:22:49;2.10;;;1.50;;
15159;SDS011;7680;48.800;9.680;2023-07-13T10:27:58;4.35;;;1.50;;
15159;SDS011;7680;48.800;9.680;2023-07-13T10:33:10;2.78;;;1.40;;
15159;SDS011;7680;48.800;9.680;2023-07-13T10:38:15;1.88;;;1.52;;
15159;SDS011;7680;48.800;9.680;2023-07-13T10:43:25;2.70;;;1.45;;
15159;SDS011;7680;48.800;9.680;2023-07-13T10:48:33;3.45;;;1.60;;
15159;SDS011;7680;48.800;9.680;2023-07-13T10:53:38;3.00;;;1.98;;
15159;SDS011;7680;48.800;9.680;2023-07-13T10:58:42;4.95;;;1.65;;
15159;SDS011;7680;48.800;9.680;2023-07-13T11:03:49;4.78;;;1.35;;
15159;SDS011;7680;48.800;9.680;2023-07-13T11:08:59;2.88;;;1.50;;
15159;SDS011;7680;48.800;9.680;2023-07-13T11:14:28;4.20;;;1.50;;
15159;SDS011;7680;48.800;9.680;2023-07-13T11:19:39;3.60;;;1.77;;
15159;SDS011;7680;48.800;9.680;2023-07-13T11:24:51;2.92;;;1.95;;
15159;SDS011;7680;48.800;9.680;2023-07-13T11:30:07;2.78;;;1.30;;
15159;SDS011;7680;48.800;9.680;2023-07-13T11:35:26;2.38;;;1.75;;
15159;SDS011;7680;48.800;9.680;2023-07-13T11:40:31;2.75;;;1.45;;
15159;SDS011;7680;48.800;9.680;2023-07-13T11:45:35;4.03;;;1.73;;
15159;SDS011;7680;48.800;9.680;2023-07-13T11:50:55;1.50;;;1.40;;
15159;SDS011;7680;48.800;9.680;2023-07-13T11:56:01;3.97;;;1.63;;
15159;SDS011;7680;48.800;9.680;2023-07-13T12:01:05;2.95;;;1.60;;
15159;SDS011;7680;48.800;9.680;2023-07-13T12:06:19;3.72;;;1.70;;
15159;SDS011;7680;48.800;9.680;2023-07-13T12:11:29;2.33;;;1.50;;
15159;SDS011;7680;48.800;9.680;2023-07-13T12:16:42;2.50;;;1.40;;
15159;SDS011;7680;48.800;9.680;2023-07-13T12:21:47;1.92;;;1.60;;
15159;SDS011;7680;48.800;9.680;2023-07-13T12:26:52;3.40;;;1.80;;
15159;SDS011;7680;48.800;9.680;2023-07-13T12:31:58;1.67;;;1.30;;
15159;SDS011;7680;48.800;9.680;2023-07-13T12:37:03;3.45;;;1.60;;
15159;SDS011;7680;48.800;9.680;2023-07-13T12:42:17;4.10;;;1.67;;
15159;SDS011;7680;48.800;9.680;2023-07-13T12:47:25;2.08;;;1.50;;
15159;SDS011;7680;48.800;9.680;2023-07-13T12:52:31;3.42;;;1.80;;
15159;SDS011;7680;48.800;9.680;2023-07-13T12:57:41;2.17;;;1.45;;
15159;SDS011;7680;48.800;9.680;2023-07-13T13:02:53;2.75;;;1.67;;
15159;SDS011;7680;48.800;9.680;2023-07-13T13:08:17;2.72;;;1.48;;
15159;SDS011;7680;48.800;9.680;2023-07-13T13:13:21;2.90;;;1.65;;
15159;SDS011;7680;48.800;9.680;2023-07-13T13:18:24;2.72;;;1.50;;
15159;SDS011;7680;48.800;9.680;2023-07-13T13:23:29;2.20;;;1.60;;
15159;SDS011;7680;48.800;9.680;2023-07-13T13:28:33;2.65;;;1.63;;
15159;SDS011;7680;48.800;9.680;2023-07-13T13:33:36;1.80;;;1.50;;
15159;SDS011;7680;48.800;9.680;2023-07-13T13:38:43;3.20;;;1.67;;
15159;SDS011;7680;48.800;9.680;2023-07-13T13:43:46;2.38;;;1.60;;
15159;SDS011;7680;48.800;9.680;2023-07-13T13:48:49;3.53;;;1.80;;
15159;SDS011;7680;48.800;9.680;2023-07-13T13:53:54;1.77;;;1.55;;
15159;SDS011;7680;48.800;9.680;2023-07-13T13:58:58;3.97;;;1.70;;
15159;SDS011;7680;48.800;9.680;2023-07-13T14:04:01;2.83;;;1.40;;
15159;SDS011;7680;48.800;9.680;2023-07-13T14:09:08;3.58;;;1.55;;
15159;SDS011;7680;48.800;9.680;2023-07-13T14:14:14;2.25;;;1.60;;
15159;SDS011;7680;48.800;9.680;2023-07-13T14:19:23;3.22;;;1.50;;
15159;SDS011;7680;48.800;9.680;2023-07-13T14:24:28;4.45;;;2.00;;
15159;SDS011;7680;48.800;9.680;2023-07-13T14:29:31;2.75;;;1.73;;
15159;SDS011;7680;48.800;9.680;2023-07-13T14:34:35;2.45;;;1.52;;
15159;SDS011;7680;48.800;9.680;2023-07-13T14:39:44;2.35;;;1.65;;
15159;SDS011;7680;48.800;9.680;2023-07-13T14:44:49;1.95;;;1.60;;
15159;SDS011;7680;48.800;9.680;2023-07-13T14:49:52;3.20;;;1.67;;
15159;SDS011;7680;48.800;9.680;2023-07-13T14:54:57;3.22;;;1.85;;
15159;SDS011;7680;48.800;9.680;2023-07-13T15:00:00;2.80;;;1.50;;
15159;SDS011;7680;48.800;9.680;2023-07-13T15:05:05;3.13;;;1.60;;
15159;SDS011;7680;48.800;9.680;2023-07-13T15:10:19;2.63;;;1.60;;
15159;SDS011;7680;48.800;9.680;2023-07-13T15:15:26;2.60;;;1.42;;
15159;SDS011;7680;48.800;9.680;2023-07-13T15:20:30;2.03;;;1.83;;
15159;SDS011;7680;48.800;9.680;2023-07-13T15:25:37;2.22;;;1.60;;
15159;SDS011;7680;48.800;9.680;2023-07-13T15:30:41;3.33;;;1.40;;
15159;SDS011;7680;48.800;9.680;2023-07-13T15:35:47;2.00;;;1.30;;
15159;SDS011;7680;48.800;9.680;2023-07-13T15:40:53;2.92;;;1.50;;
15159;SDS011;7680;48.800;9.680;2023-07-13T15:45:57;2.30;;;1.70;;
15159;SDS011;7680;48.800;9.680;2023-07-13T15:51:01;3.53;;;1.70;;
15159;SDS011;7680;48.800;9.680;2023-07-13T16:01:30;1.90;;;1.60;;
15159;SDS011;7680;48.800;9.680;2023-07-13T16:06:36;2.83;;;1.52;;
15159;SDS011;7680;48.800;9.680;2023-07-13T16:11:44;4.00;;;1.52;;
15159;SDS011;7680;48.800;9.680;2023-07-13T16:16:47;4.30;;;1.42;;
15159;SDS011;7680;48.800;9.680;2023-07-13T16:21:52;2.45;;;1.40;;
15159;SDS011;7680;48.800;9.680;2023-07-13T16:26:56;3.63;;;1.48;;
15159;SDS011;7680;48.800;9.680;2023-07-13T16:32:04;3.72;;;1.70;;
15159;SDS011;7680;48.800;9.680;2023-07-13T16:37:13;2.10;;;1.48;;
15159;SDS011;7680;48.800;9.680;2023-07-13T16:42:20;2.60;;;1.35;;
15159;SDS011;7680;48.800;9.680;2023-07-13T16:47:24;2.72;;;1.80;;
15159;SDS011;7680;48.800;9.680;2023-07-13T16:52:27;2.97;;;1.40;;
15159;SDS011;7680;48.800;9.680;2023-07-13T16:57:32;4.25;;;1.73;;
15159;SDS011;7680;48.800;9.680;2023-07-13T17:02:36;3.22;;;1.60;;
15159;SDS011;7680;48.800;9.680;2023-07-13T17:07:41;1.88;;;1.60;;
15159;SDS011;7680;48.800;9.680;2023-07-13T17:12:49;1.77;;;1.35;;
15159;SDS011;7680;48.800;9.680;2023-07-13T17:17:53;3.03;;;1.70;;
15159;SDS011;7680;48.800;9.680;2023-07-13T17:23:05;3.17;;;1.58;;
15159;SDS011;7680;48.800;9.680;2023-07-13T17:28:18;4.80;;;1.90;;
15159;SDS011;7680;48.800;9.680;2023-07-13T17:33:27;2.40;;;1.40;;
15159;SDS011;7680;48.800;9.680;2023-07-13T17:38:34;3.92;;;1.50;;
15159;SDS011;7680;48.800;9.680;2023-07-13T17:43:42;3.08;;;1.67;;
15159;SDS011;7680;48.800;9.680;2023-07-13T17:48:48;3.20;;;1.90;;
15159;SDS011;7680;48.800;9.680;2023-07-13T17:53:52;1.77;;;1.35;;
15159;SDS011;7680;48.800;9.680;2023-07-13T17:58:58;1.75;;;1.40;;
15159;SDS011;7680;48.800;9.680;2023-07-13T18:04:01;1.33;;;1.20;;
15159;SDS011;7680;48.800;9.680;2023-07-13T18:09:12;2.25;;;1.45;;
15159;SDS011;7680;48.800;9.680;2023-07-13T18:14:20;4.95;;;1.85;;
15159;SDS011;7680;48.800;9.680;2023-07-13T18:19:25;2.50;;;1.60;;
15159;SDS011;7680;48.800;9.680;2023-07-13T18:24:32;3.55;;;1.80;;
15159;SDS011;7680;48.800;9.680;2023-07-13T18:29:37;2.63;;;1.60;;
15159;SDS011;7680;48.800;9.680;2023-07-13T18:34:40;3.38;;;1.90;;
15159;SDS011;7680;48.800;9.680;2023-07-13T18:39:45;3.33;;;1.98;;
15159;SDS011;7680;48.800;9.680;2023-07-13T18:44:50;3.80;;;1.70;;
15159;SDS011;7680;48.800;9.680;2023-07-13T18:49:53;1.95;;;1.75;;
15159;SDS011;7680;48.800;9.680;2023-07-13T18:54:59;2.72;;;1.58;;
15159;SDS011;7680;48.800;9.680;2023-07-13T19:00:05;2.85;;;1.58;;
15159;SDS011;7680;48.800;9.680;2023-07-13T19:05:16;2.78;;;1.88;;
15159;SDS011;7680;48.800;9.680;2023-07-13T19:10:26;2.33;;;1.55;;
15159;SDS011;7680;48.800;9.680;2023-07-13T19:15:32;2.70;;;1.65;;
15159;SDS011;7680;48.800;9.680;2023-07-13T19:20:37;3.30;;;1.50;;
15159;SDS011;7680;48.800;9.680;2023-07-13T19:25:41;2.25;;;1.70;;
15159;SDS011;7680;48.800;9.680;2023-07-13T19:30:46;4.43;;;2.03;;
15159;SDS011;7680;48.800;9.680;2023-07-13T19:35:49;2.80;;;1.77;;
15159;SDS011;7680;48.800;9.680;2023-07-13T19:40:53;3.38;;;1.70;;
15159;SDS011;7680;48.800;9.680;2023-07-13T19:45:58;2.47;;;2.00;;
15159;SDS011;7680;48.800;9.680;2023-07-13T19:51:01;2.28;;;2.00;;
15159;SDS011;7680;48.800;9.680;2023-07-13T19:56:07;2.05;;;1.80;;
15159;SDS011;7680;48.800;9.680;2023-07-13T20:01:13;2.63;;;1.83;;
15159;SDS011;7680;48.800;9.680;2023-07-13T20:06:22;2.15;;;1.52;;
15159;SDS011;7680;48.800;9.680;2023-07-13T20:11:33;2.20;;;2.00;;
15159;SDS011;7680;48.800;9.680;2023-07-13T20:16:39;2.15;;;1.95;;
15159;SDS011;7680;48.800;9.680;2023-07-13T20:21:43;3.25;;;1.98;;
15159;SDS011;7680;48.800;9.680;2023-07-13T20:26:46;4.20;;;1.95;;
15159;SDS011;7680;48.800;9.680;2023-07-13T20:31:51;3.67;;;2.10;;
15159;SDS011;7680;48.800;9.680;2023-07-13T20:36:55;2.03;;;1.83;;
15159;SDS011;7680;48.800;9.680;2023-07-13T20:41:59;2.55;;;2.13;;
15159;SDS011;7680;48.800;9.680;2023-07-13T20:47:04;2.88;;;2.17;;
15159;SDS011;7680;48.800;9.680;2023-07-13T20:52:09;2.72;;;1.95;;
15159;SDS011;7680;48.800;9.680;2023-07-13T20:57:14;4.70;;;2.47;;
15159;SDS011;7680;48.800;9.680;2023-07-13T21:02:26;3.05;;;2.20;;
15159;SDS011;7680;48.800;9.680;2023-07-13T21:07:33;2.72;;;1.98;;
15159;SDS011;7680;48.800;9.680;2023-07-13T21:12:38;2.53;;;1.83;;
15159;SDS011;7680;48.800;9.680;2023-07-13T21:17:43;4.03;;;2.30;;
15159;SDS011;7680;48.800;9.680;2023-07-13T21:22:48;2.50;;;2.15;;
15159;SDS011;7680;48.800;9.680;2023-07-13T21:27:52;3.40;;;2.17;;
15159;SDS011;7680;48.800;9.680;2023-07-13T21:32:59;3.15;;;2.40;;
15159;SDS011;7680;48.800;9.680;2023-07-13T21:38:02;2.33;;;2.13;;
15159;SDS011;7680;48.800;9.680;2023-07-13T21:43:07;3.67;;;2.30;;
15159;SDS011;7680;48.800;9.680;2023-07-13T21:48:14;4.07;;;2.35;;
15159;SDS011;7680;48.800;9.680;2023-07-13T21:53:21;2.35;;;2.10;;
15159;SDS011;7680;48.800;9.680;2023-07-13T21:58:26;2.60;;;2.10;;
15159;SDS011;7680;48.800;9.680;2023-07-13T22:03:34;3.17;;;2.13;;
15159;SDS011;7680;48.800;9.680;2023-07-13T22:08:40;3.45;;;2.28;;
15159;SDS011;7680;48.800;9.680;2023-07-13T22:13:43;2.30;;;2.10;;
15159;SDS011;7680;48.800;9.680;2023-07-13T22:18:48;2.30;;;2.10;;
15159;SDS011;7680;48.800;9.680;2023-07-13T22:23:56;4.10;;;2.60;;
15159;SDS011;7680;48.800;9.680;2023-07-13T22:29:01;2.53;;;2.00;;
15159;SDS011;7680;48.800;9.680;2023-07-13T22:34:15;2.95;;;2.38;;
15159;SDS011;7680;48.800;9.680;2023-07-13T22:39:20;2.97;;;2.10;;
15159;SDS011;7680;48.800;9.680;2023-07-13T22:44:27;2.47;;;2.28;;
15159;SDS011;7680;48.800;9.680;2023-07-13T22:49:32;2.67;;;2.40;;
15159;SDS011;7680;48.800;9.680;2023-07-13T22:54:36;4.05;;;2.15;;
15159;SDS011;7680;48.800;9.680;2023-07-13T22:59:41;2.65;;;2.42;;
15159;SDS011;7680;48.800;9.680;2023-07-13T23:04:46;2.60;;;2.40;;
15159;SDS011;7680;48.800;9.680;2023-07-13T23:09:51;3.10;;;2.10;;
15159;SDS011;7680;48.800;9.680;2023-07-13T23:15:09;2.67;;;2.47;;
15159;SDS011;7680;48.800;9.680;2023-07-13T23:20:16;2.92;;;2.60;;
15159;SDS011;7680;48.800;9.680;2023-07-13T23:25:26;2.75;;;2.47;;
15159;SDS011;7680;48.800;9.680;2023-07-13T23:30:34;3.13;;;2.47;;
15159;SDS011;7680;48.800;9.680;2023-07-13T23:35:39;2.75;;;2.20;;
15159;SDS011;7680;48.800;9.680;2023-07-13T23:40:42;2.88;;;2.60;;
15159;SDS011;7680;48.800;9.680;2023-07-13T23:45:45;2.80;;;2.50;;
15159;SDS011;7680;48.800;9.680;2023-07-13T23:50:50;3.30;;;2.50;;
15159;SDS011;7680;48.800;9.680;2023-07-13T23:55:54;3.38;;;2.40;;
